| time (UTC) | temp C | wind direction | speed KPH | gust KPH | rain 1hr cm | rain 24hr cm | rain mn cm | humidity % | barometer mb |
| 20260906073525 | 24 | 131 | 3.2 | 9.7 | 0.00 | 0.00 | 0.00 | 50 | 1030.0 |
| 20260906073033 | 23 | 310 | 1.6 | 6.4 | 0.00 | 0.00 | 0.00 | 58 | 1025.4 |
| 20260906072521 | 23 | 142 | 3.2 | 8.0 | 0.00 | 0.00 | 0.00 | 53 | 1030.1 |
| 20260906072029 | 23 | 312 | 3.2 | 6.4 | 0.00 | 0.00 | 0.00 | 56 | 1025.2 |
| 20260906071518 | 23 | 132 | 3.2 | 6.4 | 0.00 | 0.00 | 0.00 | 52 | 1030.0 |
| 20260906071026 | 23 | 302 | 1.6 | 3.2 | 0.00 | 0.00 | 0.00 | 55 | 1025.3 |
| 20260906070534 | 23 | 148 | 3.2 | 6.4 | 0.00 | 0.00 | 0.00 | 50 | 1029.9 |
| 20260906070043 | 23 | 339 | 3.2 | 4.8 | 0.00 | 0.00 | 0.00 | 55 | 1025.2 |
| 20260906065530 | 23 | 143 | 3.2 | 6.4 | 0.00 | 0.00 | 0.00 | 51 | 1029.9 |
| 20260906065019 | 23 | 346 | 3.2 | 6.4 | 0.00 | 0.00 | 0.00 | 54 | 1025.2 |
| 20260906064526 | 23 | 133 | 3.2 | 6.4 | 0.00 | 0.00 | 0.00 | 53 | 1029.7 |
| 20260906064055 | 24 | 341 | 3.2 | 6.4 | 0.00 | 0.00 | 0.00 | 54 | 1025.2 |
| 20260906063523 | 23 | 104 | 1.6 | 6.4 | 0.00 | 0.00 | 0.00 | 51 | 1029.7 |
| 20260906063031 | 22 | 133 | 1.6 | 4.8 | 0.00 | 0.00 | 0.00 | 59 | 1025.1 |
| 20260906062519 | 23 | 122 | 1.6 | 3.2 | 0.00 | 0.00 | 0.00 | 50 | 1029.6 |
| 20260906062027 | 22 | 221 | 1.6 | 4.8 | 0.00 | 0.00 | 0.00 | 58 | 1025.0 |
| 20260906061535 | 23 | 112 | 1.6 | 6.4 | 0.00 | 0.00 | 0.00 | 53 | 1029.5 |
| 20260906061024 | 22 | 138 | 1.6 | 4.8 | 0.00 | 0.00 | 0.00 | 56 | 1025.0 |
| 20260906060531 | 23 | 116 | 1.6 | 4.8 | 0.00 | 0.00 | 0.00 | 47 | 1029.5 |
| 20260906060021 | 22 | 160 | 3.2 | 6.4 | 0.00 | 0.00 | 0.00 | 54 | 1024.8 |
| 20260906055547 | 22 | 148 | 3.2 | 4.8 | 0.00 | 0.00 | 0.00 | 43 | 1029.3 |
| 20260906055037 | 21 | 167 | 1.6 | 4.8 | 0.00 | 0.00 | 0.00 | 53 | 1024.8 |
| 20260906054603 | 22 | 143 | 1.6 | 4.8 | 0.00 | 0.00 | 0.00 | 43 | 1029.2 |
| 20260906054033 | 21 | 158 | 3.2 | 4.8 | 0.00 | 0.00 | 0.00 | 53 | 1024.7 |
| 20260906053519 | 22 | 150 | 3.2 | 6.4 | 0.00 | 0.00 | 0.00 | 44 | 1029.2 |
| 20260906053029 | 21 | 160 | 3.2 | 6.4 | 0.00 | 0.00 | 0.00 | 53 | 1024.7 |
| 20260906052516 | 21 | 148 | 3.2 | 6.4 | 0.00 | 0.00 | 0.00 | 45 | 1029.1 |
| 20260906052025 | 21 | 160 | 3.2 | 6.4 | 0.00 | 0.00 | 0.00 | 52 | 1024.7 |
| 20260906051532 | 21 | 137 | 3.2 | 6.4 | 0.00 | 0.00 | 0.00 | 45 | 1029.0 |
| 20260906051022 | 21 | 156 | 1.6 | 4.8 | 0.00 | 0.00 | 0.00 | 50 | 1024.5 |
| 20260906050527 | 21 | 107 | 1.6 | 3.2 | 0.00 | 0.00 | 0.00 | 46 | 1029.1 |
| 20260906050018 | 20 | 148 | 3.2 | 4.8 | 0.00 | 0.00 | 0.00 | 51 | 1024.5 |
| 20260906045523 | 20 | 0.0 | 3.2 | 0.00 | 0.00 | 0.00 | 48 | 1028.9 | |
| 20260906045055 | 20 | 166 | 1.6 | 6.4 | 0.00 | 0.00 | 0.00 | 49 | 1024.5 |
| 20260906044519 | 19 | 278 | 1.6 | 3.2 | 0.00 | 0.00 | 0.00 | 50 | 1029.0 |
| 20260906044031 | 20 | 112 | 1.6 | 4.8 | 0.00 | 0.00 | 0.00 | 49 | 1024.5 |
| 20260906043535 | 20 | 157 | 0.0 | 3.2 | 0.00 | 0.00 | 0.00 | 50 | 1029.0 |
| 20260906043027 | 20 | 147 | 3.2 | 6.4 | 0.00 | 0.00 | 0.00 | 49 | 1024.6 |
| 20260906042530 | 19 | 194 | 1.6 | 4.8 | 0.00 | 0.00 | 0.00 | 50 | 1029.0 |
| 20260906042024 | 20 | 158 | 4.8 | 9.7 | 0.00 | 0.00 | 0.00 | 49 | 1024.4 |
| 20260906041526 | 19 | 256 | 0.0 | 3.2 | 0.00 | 0.00 | 0.00 | 50 | 1028.9 |
| 20260906041020 | 20 | 164 | 4.8 | 8.0 | 0.00 | 0.00 | 0.00 | 49 | 1024.4 |
| 20260906040521 | 19 | 259 | 1.6 | 4.8 | 0.00 | 0.00 | 0.00 | 55 | 1028.9 |
| 20260906040016 | 20 | 150 | 3.2 | 6.4 | 0.00 | 0.00 | 0.00 | 51 | 1024.3 |
| 20260906035517 | 19 | 294 | 1.6 | 4.8 | 0.00 | 0.00 | 0.00 | 51 | 1028.8 |
| 20260906035053 | 20 | 190 | 3.2 | 4.8 | 0.00 | 0.00 | 0.00 | 51 | 1024.3 |
| 20260906034553 | 20 | 131 | 0.0 | 3.2 | 0.00 | 0.00 | 0.00 | 48 | 1028.7 |
| 20260906034029 | 20 | 33 | 1.6 | 4.8 | 0.00 | 0.00 | 0.00 | 54 | 1024.2 |
| 20260906033530 | 20 | 135 | 3.2 | 6.4 | 0.00 | 0.00 | 0.00 | 47 | 1028.7 |
| 20260906033025 | 21 | 348 | 1.6 | 4.8 | 0.00 | 0.00 | 0.00 | 51 | 1024.3 |
| 20260906032525 | 20 | 161 | 1.6 | 6.4 | 0.00 | 0.00 | 0.00 | 49 | 1028.7 |
| 20260906032022 | 20 | 143 | 1.6 | 4.8 | 0.00 | 0.00 | 0.00 | 50 | 1024.2 |
| 20260906031541 | 20 | 136 | 4.8 | 6.4 | 0.00 | 0.00 | 0.00 | 47 | 1028.7 |
| 20260906031058 | 20 | 148 | 3.2 | 6.4 | 0.00 | 0.00 | 0.00 | 51 | 1024.2 |
| 20260906030516 | 20 | 140 | 3.2 | 6.4 | 0.00 | 0.00 | 0.00 | 48 | 1028.7 |
| 20260906030034 | 21 | 174 | 1.6 | 4.8 | 0.00 | 0.00 | 0.00 | 49 | 1024.3 |
| 20260906025533 | 20 | 135 | 3.2 | 6.4 | 0.00 | 0.00 | 0.00 | 48 | 1028.7 |
| 20260906025031 | 20 | 67 | 3.2 | 6.4 | 0.00 | 0.00 | 0.00 | 54 | 1024.3 |
| 20260906024529 | 20 | 146 | 3.2 | 6.4 | 0.00 | 0.00 | 0.00 | 49 | 1028.9 |
| 20260906024027 | 21 | 23 | 4.8 | 9.7 | 0.00 | 0.00 | 0.00 | 52 | 1024.4 |
| 20260906023525 | 20 | 139 | 4.8 | 6.4 | 0.00 | 0.00 | 0.00 | 48 | 1028.9 |
| 20260906023024 | 21 | 4 | 1.6 | 6.4 | 0.00 | 0.00 | 0.00 | 52 | 1024.5 |
| 20260906022520 | 20 | 165 | 1.6 | 8.0 | 0.00 | 0.00 | 0.00 | 49 | 1028.8 |
| 20260906022020 | 21 | 153 | 1.6 | 4.8 | 0.00 | 0.00 | 0.00 | 50 | 1024.3 |
| 20260906021516 | 20 | 0.0 | 3.2 | 0.00 | 0.00 | 0.00 | 49 | 1028.9 | |
| 20260906021016 | 21 | 81 | 1.6 | 4.8 | 0.00 | 0.00 | 0.00 | 49 | 1024.3 |
| 20260906020531 | 20 | 172 | 0.0 | 4.8 | 0.00 | 0.00 | 0.00 | 47 | 1028.9 |
| 20260906020032 | 21 | 100 | 3.2 | 4.8 | 0.00 | 0.00 | 0.00 | 48 | 1024.3 |
| 20260906015547 | 20 | 138 | 1.6 | 6.4 | 0.00 | 0.00 | 0.00 | 47 | 1028.9 |
| 20260906015029 | 21 | 86 | 1.6 | 4.8 | 0.00 | 0.00 | 0.00 | 48 | 1024.4 |
| 20260906014523 | 21 | 144 | 4.8 | 8.0 | 0.00 | 0.00 | 0.00 | 43 | 1028.8 |
| 20260906014025 | 20 | 114 | 1.6 | 4.8 | 0.00 | 0.00 | 0.00 | 49 | 1024.4 |
| 20260906013519 | 21 | 140 | 3.2 | 8.0 | 0.00 | 0.00 | 0.00 | 43 | 1029.0 |
| 20260906013021 | 20 | 166 | 3.2 | 6.4 | 0.00 | 0.00 | 0.00 | 50 | 1024.4 |
| 20260906012534 | 20 | 131 | 4.8 | 6.4 | 0.00 | 0.00 | 0.00 | 48 | 1028.9 |
| 20260906012018 | 20 | 171 | 4.8 | 6.4 | 0.00 | 0.00 | 0.00 | 50 | 1024.3 |
| 20260906011530 | 20 | 134 | 3.2 | 6.4 | 0.00 | 0.00 | 0.00 | 53 | 1028.9 |
| 20260906011054 | 20 | 161 | 4.8 | 6.4 | 0.00 | 0.00 | 0.00 | 50 | 1024.4 |
| 20260906010546 | 20 | 150 | 3.2 | 6.4 | 0.00 | 0.00 | 0.00 | 55 | 1029.0 |
| 20260906010111 | 20 | 149 | 3.2 | 6.4 | 0.00 | 0.00 | 0.00 | 50 | 1024.4 |
| 20260906005520 | 19 | 153 | 1.6 | 4.8 | 0.00 | 0.00 | 0.00 | 54 | 1029.0 |
| 20260906005047 | 20 | 94 | 1.6 | 3.2 | 0.00 | 0.00 | 0.00 | 55 | 1024.4 |
| 20260906004516 | 20 | 214 | 1.6 | 3.2 | 0.00 | 0.00 | 0.00 | 53 | 1029.0 |
| 20260906004023 | 20 | 123 | 3.2 | 4.8 | 0.00 | 0.00 | 0.00 | 49 | 1024.4 |
| 20260906003532 | 20 | 183 | 0.0 | 4.8 | 0.00 | 0.00 | 0.00 | 52 | 1029.2 |
| 20260906003020 | 21 | 100 | 1.6 | 3.2 | 0.00 | 0.00 | 0.00 | 55 | 1024.5 |
| 20260906002528 | 20 | 145 | 3.2 | 6.4 | 0.00 | 0.00 | 0.00 | 51 | 1029.0 |
| 20260906002016 | 20 | 122 | 1.6 | 3.2 | 0.00 | 0.00 | 0.00 | 49 | 1024.6 |
| 20260906001525 | 20 | 139 | 1.6 | 6.4 | 0.00 | 0.00 | 0.00 | 53 | 1029.2 |
| 20260906001033 | 20 | 173 | 3.2 | 4.8 | 0.00 | 0.00 | 0.00 | 49 | 1024.7 |
| 20260906000601 | 19 | 126 | 1.6 | 6.4 | 0.00 | 0.00 | 0.00 | 54 | 1029.2 |
| 20260906000049 | 20 | 171 | 4.8 | 6.4 | 0.00 | 0.00 | 0.00 | 51 | 1024.6 |
| 20260905235516 | 20 | 117 | 0.0 | 6.4 | 0.00 | 0.00 | 0.00 | 54 | 1029.3 |
| 20260905235045 | 21 | 147 | 3.2 | 4.8 | 0.00 | 0.00 | 0.00 | 56 | 1024.8 |
| 20260905234533 | 20 | 138 | 1.6 | 6.4 | 0.00 | 0.00 | 0.00 | 52 | 1029.3 |
| 20260905234022 | 21 | 64 | 1.6 | 3.2 | 0.00 | 0.00 | 0.00 | 62 | 1024.8 |
| 20260905233529 | 20 | 126 | 3.2 | 6.4 | 0.00 | 0.00 | 0.00 | 54 | 1029.4 |
| 20260905233018 | 21 | 74 | 3.2 | 4.8 | 0.00 | 0.00 | 0.00 | 57 | 1024.8 |
| 20260905232545 | 20 | 139 | 3.2 | 6.4 | 0.00 | 0.00 | 0.00 | 54 | 1029.4 |
| 20260905232034 | 21 | 71 | 1.6 | 4.8 | 0.00 | 0.00 | 0.00 | 53 | 1024.8 |
| 20260905231521 | 20 | 128 | 1.6 | 6.4 | 0.00 | 0.00 | 0.00 | 54 | 1029.3 |
| 20260905231031 | 21 | 107 | 3.2 | 4.8 | 0.00 | 0.00 | 0.00 | 48 | 1024.9 |
| 20260905230517 | 20 | 92 | 1.6 | 4.8 | 0.00 | 0.00 | 0.00 | 54 | 1029.3 |
| 20260905230027 | 21 | 131 | 1.6 | 3.2 | 0.00 | 0.00 | 0.00 | 47 | 1024.8 |
| 20260905225533 | 20 | 140 | 3.2 | 6.4 | 0.00 | 0.00 | 0.00 | 54 | 1029.4 |
| 20260905225024 | 20 | 160 | 3.2 | 4.8 | 0.00 | 0.00 | 0.00 | 49 | 1024.8 |
| 20260905224529 | 20 | 83 | 1.6 | 3.2 | 0.00 | 0.00 | 0.00 | 53 | 1029.4 |
| 20260905224020 | 21 | 166 | 3.2 | 6.4 | 0.00 | 0.00 | 0.00 | 50 | 1024.9 |
| 20260905223525 | 20 | 118 | 1.6 | 4.8 | 0.00 | 0.00 | 0.00 | 51 | 1029.4 |
| 20260905223036 | 21 | 153 | 1.6 | 3.2 | 0.00 | 0.00 | 0.00 | 50 | 1024.9 |
| 20260905222521 | 20 | 104 | 3.2 | 6.4 | 0.00 | 0.00 | 0.00 | 53 | 1029.4 |
| 20260905222033 | 21 | 249 | 1.6 | 3.2 | 0.00 | 0.00 | 0.00 | 51 | 1024.9 |
| 20260905221617 | 20 | 142 | 1.6 | 4.8 | 0.00 | 0.00 | 0.00 | 50 | 1029.4 |
| 20260905221029 | 21 | 180 | 3.2 | 4.8 | 0.00 | 0.00 | 0.00 | 51 | 1024.8 |
| 20260905220533 | 20 | 101 | 1.6 | 4.8 | 0.00 | 0.00 | 0.00 | 48 | 1029.4 |
| 20260905220025 | 21 | 176 | 3.2 | 6.4 | 0.00 | 0.00 | 0.00 | 50 | 1024.8 |
| 20260905215529 | 20 | 99 | 1.6 | 4.8 | 0.00 | 0.00 | 0.00 | 45 | 1029.3 |
| 20260905215022 | 20 | 159 | 3.2 | 4.8 | 0.00 | 0.00 | 0.00 | 55 | 1024.8 |
| 20260905214525 | 20 | 0.0 | 3.2 | 0.00 | 0.00 | 0.00 | 46 | 1029.4 | |
| 20260905214058 | 20 | 120 | 1.6 | 3.2 | 0.00 | 0.00 | 0.00 | 60 | 1024.7 |
| 20260905213521 | 20 | 0.0 | 3.2 | 0.00 | 0.00 | 0.00 | 49 | 1029.5 | |
| 20260905213035 | 21 | 53 | 3.2 | 4.8 | 0.00 | 0.00 | 0.00 | 64 | 1024.9 |
| 20260905212517 | 20 | 182 | 0.0 | 3.2 | 0.00 | 0.00 | 0.00 | 48 | 1029.5 |
| 20260905212031 | 21 | 53 | 1.6 | 3.2 | 0.00 | 0.00 | 0.00 | 65 | 1024.8 |
| 20260905211533 | 20 | 0.0 | 3.2 | 0.00 | 0.00 | 0.00 | 47 | 1029.5 | |
| 20260905211049 | 21 | 67 | 1.6 | 3.2 | 0.00 | 0.00 | 0.00 | 63 | 1024.8 |
| 20260905210529 | 20 | 132 | 0.0 | 3.2 | 0.00 | 0.00 | 0.00 | 50 | 1029.5 |
| 20260905210024 | 21 | 53 | 1.6 | 4.8 | 0.00 | 0.00 | 0.00 | 59 | 1024.7 |
| 20260905205526 | 20 | 285 | 0.0 | 3.2 | 0.00 | 0.00 | 0.00 | 48 | 1029.4 |
| 20260905205020 | 22 | 62 | 1.6 | 6.4 | 0.00 | 0.00 | 0.00 | 50 | 1024.7 |
| 20260905204521 | 20 | 0.0 | 3.2 | 0.00 | 0.00 | 0.00 | 54 | 1029.5 | |
| 20260905204016 | 22 | 75 | 1.6 | 4.8 | 0.00 | 0.00 | 0.00 | 37 | 1024.7 |
| 20260905203517 | 20 | 136 | 0.0 | 3.2 | 0.00 | 0.00 | 0.00 | 52 | 1029.3 |
| 20260905203053 | 22 | 138 | 1.6 | 3.2 | 0.00 | 0.00 | 0.00 | 38 | 1024.8 |
| 20260905202534 | 21 | 123 | 1.6 | 4.8 | 0.00 | 0.00 | 0.00 | 52 | 1029.5 |
| 20260905202030 | 22 | 162 | 3.2 | 4.8 | 0.00 | 0.00 | 0.00 | 37 | 1024.6 |
| 20260905201530 | 21 | 118 | 3.2 | 6.4 | 0.00 | 0.00 | 0.00 | 51 | 1029.5 |
| 20260905201046 | 22 | 183 | 6.4 | 8.0 | 0.00 | 0.00 | 0.00 | 37 | 1024.5 |
| 20260905200546 | 21 | 150 | 1.6 | 8.0 | 0.00 | 0.00 | 0.00 | 49 | 1029.5 |
| 20260905200042 | 22 | 183 | 8.0 | 9.7 | 0.00 | 0.00 | 0.00 | 37 | 1024.6 |
| 20260905195521 | 20 | 131 | 1.6 | 6.4 | 0.00 | 0.00 | 0.00 | 48 | 1029.6 |
| 20260905195018 | 22 | 166 | 4.8 | 6.4 | 0.00 | 0.00 | 0.00 | 38 | 1024.7 |
| 20260905194518 | 21 | 102 | 1.6 | 4.8 | 0.00 | 0.00 | 0.00 | 46 | 1029.5 |
| 20260905194035 | 23 | 152 | 3.2 | 4.8 | 0.00 | 0.00 | 0.00 | 42 | 1024.7 |
| 20260905193534 | 20 | 90 | 1.6 | 3.2 | 0.00 | 0.00 | 0.00 | 48 | 1029.5 |
| 20260905193031 | 23 | 132 | 3.2 | 4.8 | 0.00 | 0.00 | 0.00 | 43 | 1024.8 |
| 20260905192551 | 20 | 0.0 | 1.6 | 0.00 | 0.00 | 0.00 | 54 | 1029.4 | |
| 20260905192028 | 23 | 135 | 1.6 | 3.2 | 0.00 | 0.00 | 0.00 | 44 | 1024.7 |
| 20260905191526 | 20 | 76 | 0.0 | 3.2 | 0.00 | 0.00 | 0.00 | 59 | 1029.4 |
| 20260905191024 | 23 | 163 | 0.0 | 3.2 | 0.00 | 0.00 | 0.00 | 47 | 1024.6 |
| 20260905190523 | 20 | 0.0 | 1.6 | 0.00 | 0.00 | 0.00 | 57 | 1029.4 | |
| 20260905190020 | 23 | 181 | 3.2 | 6.4 | 0.00 | 0.00 | 0.00 | 53 | 1024.6 |
| 20260905185519 | 21 | 92 | 0.0 | 1.6 | 0.00 | 0.00 | 0.00 | 51 | 1029.4 |
| 20260905185017 | 23 | 189 | 4.8 | 6.4 | 0.00 | 0.00 | 0.00 | 56 | 1024.4 |
| 20260905184555 | 21 | 0.0 | 1.6 | 0.00 | 0.00 | 0.00 | 46 | 1029.4 | |
| 20260905184033 | 23 | 183 | 6.4 | 8.0 | 0.00 | 0.00 | 0.00 | 57 | 1024.3 |
| 20260905183550 | 21 | 0.0 | 1.6 | 0.00 | 0.00 | 0.00 | 50 | 1029.3 | |
| 20260905183030 | 23 | 183 | 6.4 | 8.0 | 0.00 | 0.00 | 0.00 | 59 | 1024.2 |
| 20260905182547 | 21 | 117 | 0.0 | 3.2 | 0.00 | 0.00 | 0.00 | 57 | 1029.3 |
| 20260905182027 | 23 | 181 | 6.4 | 8.0 | 0.00 | 0.00 | 0.00 | 60 | 1024.3 |
| 20260905181522 | 21 | 86 | 0.0 | 4.8 | 0.00 | 0.00 | 0.00 | 58 | 1029.2 |
| 20260905181023 | 23 | 181 | 8.0 | 8.0 | 0.00 | 0.00 | 0.00 | 59 | 1024.1 |
| 20260905180517 | 21 | 276 | 1.6 | 4.8 | 0.00 | 0.00 | 0.00 | 61 | 1029.2 |
| 20260905180019 | 23 | 179 | 8.0 | 9.7 | 0.00 | 0.00 | 0.00 | 58 | 1024.1 |
| 20260905175533 | 20 | 256 | 3.2 | 6.4 | 0.00 | 0.00 | 0.00 | 66 | 1029.0 |
| 20260905175035 | 23 | 180 | 8.0 | 9.7 | 0.00 | 0.00 | 0.00 | 57 | 1024.0 |
| 20260905174528 | 21 | 248 | 3.2 | 6.4 | 0.00 | 0.00 | 0.00 | 69 | 1029.1 |
| 20260905174032 | 23 | 179 | 8.0 | 9.7 | 0.00 | 0.00 | 0.00 | 56 | 1023.9 |
| 20260905173544 | 21 | 235 | 3.2 | 8.0 | 0.00 | 0.00 | 0.00 | 71 | 1029.0 |
| 20260905173028 | 23 | 183 | 8.0 | 11.3 | 0.00 | 0.00 | 0.00 | 54 | 1024.0 |
| 20260905172520 | 21 | 226 | 1.6 | 9.7 | 0.00 | 0.00 | 0.00 | 70 | 1028.9 |
| 20260905172025 | 24 | 177 | 8.0 | 11.3 | 0.00 | 0.00 | 0.00 | 53 | 1024.0 |
| 20260905171516 | 21 | 241 | 3.2 | 9.7 | 0.00 | 0.00 | 0.00 | 69 | 1028.9 |
| 20260905171021 | 24 | 179 | 8.0 | 11.3 | 0.00 | 0.00 | 0.00 | 53 | 1023.9 |
| 20260905170531 | 21 | 210 | 3.2 | 12.9 | 0.00 | 0.00 | 0.00 | 68 | 1029.1 |
| 20260905170017 | 25 | 184 | 8.0 | 11.3 | 0.00 | 0.00 | 0.00 | 50 | 1023.9 |
| 20260905165527 | 22 | 155 | 1.6 | 6.4 | 0.00 | 0.00 | 0.00 | 66 | 1029.0 |
| 20260905165034 | 25 | 190 | 6.4 | 11.3 | 0.00 | 0.00 | 0.00 | 49 | 1023.8 |
| 20260905164523 | 22 | 227 | 1.6 | 17.7 | 0.00 | 0.00 | 0.00 | 63 | 1029.0 |
| 20260905164030 | 26 | 191 | 4.8 | 8.0 | 0.00 | 0.00 | 0.00 | 48 | 1023.7 |
| 20260905163519 | 22 | 278 | 3.2 | 12.9 | 0.00 | 0.00 | 0.00 | 61 | 1028.9 |
| 20260905163026 | 26 | 191 | 6.4 | 9.7 | 0.00 | 0.00 | 0.00 | 47 | 1023.8 |
| 20260905162535 | 22 | 249 | 4.8 | 14.5 | 0.00 | 0.00 | 0.00 | 58 | 1029.1 |
| 20260905162128 | 26 | 184 | 6.4 | 9.7 | 0.00 | 0.00 | 0.00 | 46 | 1023.9 |
| 20260905161530 | 23 | 230 | 6.4 | 16.1 | 0.00 | 0.00 | 0.00 | 56 | 1029.0 |
| 20260905161019 | 27 | 205 | 4.8 | 9.7 | 0.00 | 0.00 | 0.00 | 45 | 1024.0 |
| 20260905160526 | 24 | 263 | 4.8 | 16.1 | 0.00 | 0.00 | 0.00 | 58 | 1029.0 |
| 20260905160015 | 27 | 205 | 6.4 | 14.5 | 0.00 | 0.00 | 0.00 | 46 | 1024.0 |
| 20260905155521 | 25 | 284 | 6.4 | 14.5 | 0.00 | 0.00 | 0.00 | 59 | 1029.1 |
| 20260905155032 | 27 | 217 | 6.4 | 14.5 | 0.00 | 0.00 | 0.00 | 44 | 1024.0 |
| 20260905154517 | 25 | 329 | 3.2 | 11.3 | 0.00 | 0.00 | 0.00 | 57 | 1029.1 |
| 20260905154028 | 27 | 204 | 6.4 | 11.3 | 0.00 | 0.00 | 0.00 | 42 | 1024.1 |
| 20260905153534 | 25 | 355 | 1.6 | 9.7 | 0.00 | 0.00 | 0.00 | 58 | 1029.2 |
| 20260905153025 | 28 | 205 | 6.4 | 12.9 | 0.00 | 0.00 | 0.00 | 39 | 1024.0 |
| 20260905152529 | 24 | 286 | 6.4 | 17.7 | 0.00 | 0.00 | 0.00 | 57 | 1029.2 |
| 20260905152101 | 28 | 208 | 6.4 | 12.9 | 0.00 | 0.00 | 0.00 | 39 | 1023.9 |
| 20260905151525 | 25 | 260 | 4.8 | 11.3 | 0.00 | 0.00 | 0.00 | 56 | 1029.2 |
| 20260905151018 | 28 | 211 | 6.4 | 12.9 | 0.00 | 0.00 | 0.00 | 39 | 1024.1 |
| 20260905150521 | 25 | 275 | 4.8 | 27.4 | 0.00 | 0.00 | 0.00 | 53 | 1029.1 |
| 20260905150035 | 28 | 196 | 4.8 | 9.7 | 0.00 | 0.00 | 0.00 | 39 | 1024.0 |
| 20260905145516 | 25 | 272 | 8.0 | 25.7 | 0.00 | 0.00 | 0.00 | 52 | 1029.2 |
| 20260905145051 | 29 | 232 | 6.4 | 14.5 | 0.00 | 0.00 | 0.00 | 40 | 1024.0 |
| 20260905144532 | 25 | 266 | 6.4 | 24.1 | 0.00 | 0.00 | 0.00 | 50 | 1029.1 |
| 20260905144027 | 29 | 211 | 6.4 | 12.9 | 0.00 | 0.00 | 0.00 | 41 | 1024.1 |
| 20260905143528 | 26 | 296 | 4.8 | 32.2 | 0.00 | 0.00 | 0.00 | 50 | 1029.0 |
| 20260905143023 | 29 | 216 | 6.4 | 14.5 | 0.00 | 0.00 | 0.00 | 39 | 1024.1 |
| 20260905142523 | 26 | 270 | 4.8 | 17.7 | 0.00 | 0.00 | 0.00 | 49 | 1029.2 |
| 20260905142040 | 30 | 198 | 4.8 | 17.7 | 0.00 | 0.00 | 0.00 | 38 | 1023.9 |
| 20260905141518 | 26 | 256 | 8.0 | 27.4 | 0.00 | 0.00 | 0.00 | 49 | 1029.3 |
| 20260905141036 | 30 | 205 | 6.4 | 14.5 | 0.00 | 0.00 | 0.00 | 38 | 1024.2 |
| 20260905140534 | 26 | 216 | 8.0 | 25.7 | 0.00 | 0.00 | 0.00 | 46 | 1029.2 |
| 20260905140032 | 30 | 212 | 6.4 | 16.1 | 0.00 | 0.00 | 0.00 | 37 | 1024.2 |
| 20260905135530 | 26 | 236 | 6.4 | 16.1 | 0.00 | 0.00 | 0.00 | 44 | 1029.4 |
| 20260905135029 | 30 | 192 | 6.4 | 16.1 | 0.00 | 0.00 | 0.00 | 34 | 1024.3 |
| 20260905134526 | 27 | 259 | 3.2 | 12.9 | 0.00 | 0.00 | 0.00 | 42 | 1029.4 |
| 20260905134025 | 31 | 210 | 4.8 | 9.7 | 0.00 | 0.00 | 0.00 | 34 | 1024.4 |
| 20260905133522 | 27 | 245 | 6.4 | 25.7 | 0.00 | 0.00 | 0.00 | 41 | 1029.5 |
| 20260905133042 | 31 | 198 | 4.8 | 11.3 | 0.00 | 0.00 | 0.00 | 32 | 1024.5 |
| 20260905132518 | 27 | 257 | 4.8 | 11.3 | 0.00 | 0.00 | 0.00 | 40 | 1029.6 |
| 20260905132018 | 31 | 243 | 4.8 | 16.1 | 0.00 | 0.00 | 0.00 | 33 | 1024.4 |
| 20260905131534 | 27 | 280 | 6.4 | 20.9 | 0.00 | 0.00 | 0.00 | 41 | 1029.8 |
| 20260905131034 | 31 | 213 | 4.8 | 9.7 | 0.00 | 0.00 | 0.00 | 31 | 1024.4 |
| 20260905130529 | 27 | 194 | 4.8 | 14.5 | 0.00 | 0.00 | 0.00 | 40 | 1029.7 |
| 20260905130031 | 31 | 223 | 3.2 | 9.7 | 0.00 | 0.00 | 0.00 | 31 | 1024.4 |
| 20260905125525 | 27 | 236 | 4.8 | 17.7 | 0.00 | 0.00 | 0.00 | 39 | 1029.8 |
| 20260905125027 | 31 | 270 | 4.8 | 9.7 | 0.00 | 0.00 | 0.00 | 30 | 1024.6 |
| 20260905124520 | 27 | 250 | 6.4 | 12.9 | 0.00 | 0.00 | 0.00 | 37 | 1029.8 |
| 20260905124024 | 31 | 287 | 3.2 | 8.0 | 0.00 | 0.00 | 0.00 | 28 | 1024.7 |
| 20260905123516 | 27 | 225 | 3.2 | 12.9 | 0.00 | 0.00 | 0.00 | 37 | 1029.8 |
| 20260905123020 | 31 | 280 | 3.2 | 9.7 | 0.00 | 0.00 | 0.00 | 28 | 1024.7 |
| 20260905122531 | 27 | 241 | 3.2 | 11.3 | 0.00 | 0.00 | 0.00 | 36 | 1030.1 |
| 20260905122016 | 32 | 283 | 3.2 | 8.0 | 0.00 | 0.00 | 0.00 | 27 | 1024.7 |
| 20260905121528 | 27 | 310 | 4.8 | 16.1 | 0.00 | 0.00 | 0.00 | 39 | 1030.1 |
| 20260905121033 | 32 | 307 | 4.8 | 11.3 | 0.00 | 0.00 | 0.00 | 26 | 1024.7 |
| 20260905120523 | 26 | 269 | 4.8 | 14.5 | 0.00 | 0.00 | 0.00 | 40 | 1030.2 |
| 20260905120029 | 32 | 299 | 3.2 | 6.4 | 0.00 | 0.00 | 0.00 | 26 | 1024.7 |
| 20260905115519 | 27 | 108 | 3.2 | 9.7 | 0.00 | 0.00 | 0.00 | 41 | 1030.2 |
| 20260905115025 | 31 | 259 | 1.6 | 4.8 | 0.00 | 0.00 | 0.00 | 29 | 1024.8 |
| 20260905114515 | 27 | 39 | 4.8 | 9.7 | 0.00 | 0.00 | 0.00 | 42 | 1030.2 |
| 20260905114022 | 30 | 298 | 3.2 | 8.0 | 0.00 | 0.00 | 0.00 | 31 | 1024.7 |
| 20260905113531 | 27 | 180 | 4.8 | 11.3 | 0.00 | 0.00 | 0.00 | 41 | 1030.2 |
| 20260905113018 | 30 | 331 | 4.8 | 9.7 | 0.00 | 0.00 | 0.00 | 31 | 1024.7 |
| 20260905112526 | 27 | 99 | 3.2 | 11.3 | 0.00 | 0.00 | 0.00 | 40 | 1030.1 |
| 20260905112055 | 31 | 331 | 3.2 | 8.0 | 0.00 | 0.00 | 0.00 | 29 | 1024.8 |
| 20260905111523 | 26 | 194 | 3.2 | 9.7 | 0.00 | 0.00 | 0.00 | 44 | 1030.1 |
| 20260905111031 | 30 | 291 | 3.2 | 8.0 | 0.00 | 0.00 | 0.00 | 30 | 1024.8 |
| 20260905110539 | 26 | 313 | 4.8 | 17.7 | 0.00 | 0.00 | 0.00 | 44 | 1030.3 |
| 20260905110028 | 30 | 309 | 3.2 | 8.0 | 0.00 | 0.00 | 0.00 | 30 | 1024.9 |
| 20260905105535 | 27 | 284 | 3.2 | 8.0 | 0.00 | 0.00 | 0.00 | 40 | 1030.2 |
| 20260905105044 | 31 | 303 | 1.6 | 6.4 | 0.00 | 0.00 | 0.00 | 29 | 1024.8 |
| 20260905104531 | 26 | 307 | 3.2 | 11.3 | 0.00 | 0.00 | 0.00 | 39 | 1030.2 |
| 20260905104020 | 30 | 289 | 3.2 | 4.8 | 0.00 | 0.00 | 0.00 | 30 | 1024.8 |
| 20260905103527 | 27 | 100 | 3.2 | 6.4 | 0.00 | 0.00 | 0.00 | 38 | 1030.2 |
| 20260905103016 | 30 | 281 | 3.2 | 8.0 | 0.00 | 0.00 | 0.00 | 32 | 1025.0 |
| 20260905102523 | 26 | 302 | 3.2 | 8.0 | 0.00 | 0.00 | 0.00 | 36 | 1030.3 |
| 20260905102034 | 28 | 281 | 1.6 | 6.4 | 0.00 | 0.00 | 0.00 | 35 | 1025.1 |
| 20260905101539 | 27 | 67 | 3.2 | 6.4 | 0.00 | 0.00 | 0.00 | 36 | 1030.1 |
| 20260905101029 | 29 | 301 | 3.2 | 8.0 | 0.00 | 0.00 | 0.00 | 33 | 1025.0 |
| 20260905100534 | 26 | 133 | 4.8 | 9.7 | 0.00 | 0.00 | 0.00 | 36 | 1030.3 |
| 20260905100026 | -17 | 0.0 | 0.0 | 0.00 | 0.00 | 0.00 | 1025.1 | ||
| 20260905095529 | 27 | 224 | 3.2 | 9.7 | 0.00 | 0.00 | 0.00 | 38 | 1030.5 |
| 20260905095022 | 28 | 285 | 1.6 | 4.8 | 0.00 | 0.00 | 0.00 | 37 | 1025.1 |
| 20260905094526 | 26 | 2 | 3.2 | 9.7 | 0.00 | 0.00 | 0.00 | 41 | 1030.4 |
| 20260905094019 | 28 | 304 | 3.2 | 9.7 | 0.00 | 0.00 | 0.00 | 37 | 1025.0 |
| 20260905093542 | 27 | 109 | 3.2 | 8.0 | 0.00 | 0.00 | 0.00 | 41 | 1030.4 |
| 20260905093035 | 28 | 10 | 1.6 | 6.4 | 0.00 | 0.00 | 0.00 | 37 | 1025.1 |
| 20260905092518 | 26 | 8 | 3.2 | 9.7 | 0.00 | 0.00 | 0.00 | 42 | 1030.3 |
| 20260905092051 | 27 | 325 | 3.2 | 6.4 | 0.00 | 0.00 | 0.00 | 39 | 1025.2 |
| 20260905091534 | 26 | 113 | 3.2 | 11.3 | 0.00 | 0.00 | 0.00 | 42 | 1030.2 |
| 20260905091027 | 27 | 310 | 3.2 | 6.4 | 0.00 | 0.00 | 0.00 | 40 | 1025.0 |
| 20260905090530 | 26 | 98 | 3.2 | 9.7 | 0.00 | 0.00 | 0.00 | 42 | 1030.3 |
| 20260905090044 | 27 | 307 | 4.8 | 6.4 | 0.00 | 0.00 | 0.00 | 40 | 1024.8 |
| 20260905085526 | 26 | 124 | 3.2 | 9.7 | 0.00 | 0.00 | 0.00 | 43 | 1030.1 |
| 20260905085020 | 27 | 13 | 1.6 | 4.8 | 0.00 | 0.00 | 0.00 | 40 | 1024.9 |
| 20260905084523 | 26 | 285 | 3.2 | 9.7 | 0.00 | 0.00 | 0.00 | 42 | 1030.2 |
| 20260905084017 | 27 | 311 | 1.6 | 4.8 | 0.00 | 0.00 | 0.00 | 40 | 1024.9 |
| 20260905083539 | 26 | 284 | 3.2 | 11.3 | 0.00 | 0.00 | 0.00 | 43 | 1030.1 |
| 20260905083034 | 27 | 0.0 | 3.2 | 0.00 | 0.00 | 0.00 | 41 | 1024.9 | |
| 20260905082534 | 25 | 72 | 3.2 | 6.4 | 0.00 | 0.00 | 0.00 | 43 | 1029.9 |
| 20260905082030 | 27 | 297 | 1.6 | 4.8 | 0.00 | 0.00 | 0.00 | 41 | 1024.9 |
| 20260905081531 | 25 | 149 | 3.2 | 11.3 | 0.00 | 0.00 | 0.00 | 44 | 1029.8 |
| 20260905081026 | 27 | 299 | 1.6 | 4.8 | 0.00 | 0.00 | 0.00 | 40 | 1024.8 |
| 20260905080527 | 26 | 153 | 3.2 | 9.7 | 0.00 | 0.00 | 0.00 | 44 | 1029.8 |
| 20260905080024 | 27 | 69 | 1.6 | 6.4 | 0.00 | 0.00 | 0.00 | 40 | 1024.7 |
| 20260905075523 | 25 | 137 | 1.6 | 6.4 | 0.00 | 0.00 | 0.00 | 45 | 1029.6 |
| 20260905075019 | 26 | 311 | 1.6 | 4.8 | 0.00 | 0.00 | 0.00 | 42 | 1024.7 |
| 20260905074519 | 25 | 135 | 3.2 | 6.4 | 0.00 | 0.00 | 0.00 | 48 | 1029.7 |
| 20260905074055 | 26 | 327 | 1.6 | 6.4 | 0.00 | 0.00 | 0.00 | 41 | 1024.7 |